Ana Sayfa
METAR-TAF:

METAR-TAF

Havaalanları :

Afton, Wyoming, Amerika Birleşik Devletleri

Enlem: 42-42-32N, Boylam: 110-56-32W, yükseklik: 1896 m

Güncel hava durumu gözlemi

Rapor saat 12:35 UTC de 18 dakika önce yapıldı.
Rüzgar güneybatıdan 7 kt
Sıcaklık 1°C
Nem 86%
Basınç 1016 hPa
Görüş mesafesi: 16.1 km
4100 ft yükseklikte parçalı bulutlu
4900 ft yükseklikte çok bulutlu

METAR: KAFO 171235Z AUTO 22007KT 10SM SCT041 OVC049 01/M01 A3000 RMK AO2

Saat: 06:53 (12:53 UTC)


TAF: eksik

4.000'den fazla havaalanı için hava durumu gözlemleri ve tahminleri (METAR ve TAF raporları).

Kullanılabilir istasyonlar harita üzerinde sarı ve kırmızı noktalarla gösterilir.

İstasyonun adını görmek için fareyi noktanın üzerinde gezdirin.

Sonrasında hava gözlem ve tahminlerini görmek için tıklayın.

Haritayı değiştirmek için: yaklaştırmak için siyah artı işaretli yeşil düğmeye ve uzaklaştırmak için de eksi işaretli düğmeye hızla tıklayın; bitişik haritalar için yeşil okları kullanın.


METAR-TAF: